Time;durP1;ratioP1;P1;durP2;ratioP2;P2;SDS_P1;SDS_P2;PMS_P1;PMS_P2;Temp;Humidity;BMP_temperature;BMP_pressure;BME280_temperature;BME280_humidity;BME280_pressure;Samples;Min_cycle;Max_cycle;Signal;HPM_P1;HPM_P2
2021/03/18 18:41:14;;;;;;;571.83;369.58;;;;;;;;;;5059941;27;20730;-76
2021/03/18 18:43:40;;;;;;;512.92;314.63;;;;;;;;;;5052749;28;20449;-76
2021/03/18 18:46:06;;;;;;;508.52;308.98;;;;;;;;;;5048675;28;20503;-76
2021/03/18 18:48:32;;;;;;;502.92;293.15;;;;;;;;;;5065497;28;20022;-77
2021/03/18 18:50:58;;;;;;;495.20;271.50;;;;;;;;;;5050117;28;20029;-78
2021/03/18 18:53:24;;;;;;;486.83;257.92;;;;;;;;;;5048778;28;20052;-77
2021/03/18 18:55:50;;;;;;;477.38;241.15;;;;;;;;;;5050253;28;20036;-77
2021/03/18 18:58:18;;;;;;;471.15;235.35;;;;;;;;;;5036560;28;20030;-77
2021/03/18 19:00:44;;;;;;;472.05;239.10;;;;;;;;;;5049427;28;20358;-76
2021/03/18 19:03:10;;;;;;;467.40;230.75;;;;;;;;;;5060121;28;20029;-77
2021/03/18 19:05:37;;;;;;;456.92;230.35;;;;;;;;;;5055203;28;20022;-76
2021/03/18 19:08:04;;;;;;;456.73;220.30;;;;;;;;;;5049192;28;20025;-75
2021/03/18 19:10:38;;;;;;;462.70;222.23;;;;;;;;;;5047780;28;20025;-76
2021/03/18 19:13:04;;;;;;;465.33;227.88;;;;;;;;;;5045101;28;20037;-76
2021/03/18 19:15:31;;;;;;;455.42;221.82;;;;;;;;;;5063954;28;20025;-75
2021/03/18 19:18:00;;;;;;;456.75;213.75;;;;;;;;;;5048326;28;20838;-76
2021/03/18 19:20:26;;;;;;;447.17;214.90;;;;;;;;;;5047849;28;20102;-76
2021/03/18 19:22:52;;;;;;;447.30;216.23;;;;;;;;;;5064410;28;20107;-76
2021/03/18 19:25:18;;;;;;;442.23;215.23;;;;;;;;;;5047101;28;20029;-75
2021/03/18 19:27:46;;;;;;;437.45;211.35;;;;;;;;;;5048690;28;20022;-76
2021/03/18 19:30:15;;;;;;;441.23;212.65;;;;;;;;;;5048808;28;20104;-75
2021/03/18 19:32:43;;;;;;;442.23;217.10;;;;;;;;;;5050134;28;20112;-75
2021/03/18 19:35:09;;;;;;;439.45;215.38;;;;;;;;;;5048803;28;20053;-76
2021/03/18 19:37:35;;;;;;;433.35;212.32;;;;;;;;;;5049596;28;20645;-76
2021/03/18 19:40:01;;;;;;;434.52;216.20;;;;;;;;;;5047384;28;20073;-76
2021/03/18 19:42:27;;;;;;;439.90;222.60;;;;;;;;;;5073666;28;20043;-76
2021/03/18 19:44:53;;;;;;;442.73;219.15;;;;;;;;;;5046558;28;20025;-76
2021/03/18 19:47:19;;;;;;;431.08;202.75;;;;;;;;;;5060127;28;20014;-76
2021/03/18 19:49:45;;;;;;;442.38;209.98;;;;;;;;;;5069042;28;20541;-76
2021/03/18 19:52:12;;;;;;;438.50;211.68;;;;;;;;;;5042734;28;20033;-76
2021/03/18 19:54:38;;;;;;;433.98;213.52;;;;;;;;;;5036845;28;20053;-76
2021/03/18 19:57:04;;;;;;;435.48;212.93;;;;;;;;;;5033307;28;20029;-75
2021/03/18 19:59:30;;;;;;;431.58;210.73;;;;;;;;;;5046408;28;20099;-76
2021/03/18 20:01:56;;;;;;;432.00;206.35;;;;;;;;;;5032692;28;20021;-76
2021/03/18 20:04:22;;;;;;;424.95;207.45;;;;;;;;;;5033761;28;20022;-75
2021/03/18 20:06:48;;;;;;;424.88;209.52;;;;;;;;;;5050305;28;20488;-77
2021/03/18 20:09:14;;;;;;;429.02;210.52;;;;;;;;;;5034820;28;20025;-75
2021/03/18 20:11:40;;;;;;;429.35;211.95;;;;;;;;;;5032456;28;20026;-76
2021/03/18 20:14:06;;;;;;;427.08;209.35;;;;;;;;;;5033267;28;20485;-76
2021/03/18 20:16:32;;;;;;;425.90;212.55;;;;;;;;;;5041062;28;20040;-76
2021/03/18 20:18:58;;;;;;;433.27;212.10;;;;;;;;;;5033567;28;20029;-77
2021/03/18 20:21:24;;;;;;;426.88;212.27;;;;;;;;;;5032007;28;20037;-76
2021/03/18 20:23:54;;;;;;;430.70;204.00;;;;;;;;;;5033191;28;20032;-76
2021/03/18 20:26:23;;;;;;;439.30;207.00;;;;;;;;;;5029887;28;20024;-77
2021/03/18 20:28:49;;;;;;;435.40;209.93;;;;;;;;;;5033073;28;20017;-76
2021/03/18 20:31:16;;;;;;;429.52;208.15;;;;;;;;;;5045455;28;20080;-76
2021/03/18 20:33:42;;;;;;;427.80;214.57;;;;;;;;;;5029458;28;20022;-77
2021/03/18 20:36:08;;;;;;;427.98;207.75;;;;;;;;;;5030545;28;20036;-76
2021/03/18 20:38:35;;;;;;;427.95;214.85;;;;;;;;;;5035126;28;20025;-76
2021/03/18 20:41:01;;;;;;;427.48;206.05;;;;;;;;;;5037542;28;20049;-76
2021/03/18 20:43:27;;;;;;;422.83;202.18;;;;;;;;;;5035258;28;20033;-76
2021/03/18 20:45:56;;;;;;;429.88;206.30;;;;;;;;;;5033948;28;20082;-76
2021/03/18 20:48:22;;;;;;;425.10;206.95;;;;;;;;;;5037780;28;20030;-76
2021/03/18 20:50:48;;;;;;;430.38;207.07;;;;;;;;;;5041686;28;20025;-76
2021/03/18 20:53:17;;;;;;;422.15;207.27;;;;;;;;;;5046990;28;20565;-76
2021/03/18 20:55:44;;;;;;;428.27;207.57;;;;;;;;;;5050432;28;20116;-76
2021/03/18 20:58:10;;;;;;;426.88;206.77;;;;;;;;;;5033844;28;20026;-76
2021/03/18 21:00:38;;;;;;;422.88;207.82;;;;;;;;;;5033559;28;20017;-76
2021/03/18 21:03:04;;;;;;;428.27;200.95;;;;;;;;;;5048771;28;20021;-76
2021/03/18 21:05:30;;;;;;;420.58;203.18;;;;;;;;;;5033213;28;20029;-77
2021/03/18 21:07:56;;;;;;;421.27;204.02;;;;;;;;;;5052181;28;20029;-76
2021/03/18 21:10:23;;;;;;;418.95;203.10;;;;;;;;;;5042401;28;20024;-77
2021/03/18 21:12:49;;;;;;;425.13;203.80;;;;;;;;;;5031719;28;20029;-77
2021/03/18 21:15:16;;;;;;;431.30;214.32;;;;;;;;;;5032578;28;20444;-77
2021/03/18 21:17:43;;;;;;;438.10;207.10;;;;;;;;;;5028285;28;20026;-76
2021/03/18 21:20:10;;;;;;;428.83;209.50;;;;;;;;;;5032233;28;20029;-77
2021/03/18 21:22:36;;;;;;;429.10;209.77;;;;;;;;;;5033402;28;20021;-76
2021/03/18 21:25:02;;;;;;;423.77;205.48;;;;;;;;;;5033185;28;20076;-77
2021/03/18 21:27:28;;;;;;;429.95;209.07;;;;;;;;;;5048696;28;20025;-76
2021/03/18 21:29:54;;;;;;;425.33;207.02;;;;;;;;;;5033337;28;20091;-77
2021/03/18 21:32:20;;;;;;;432.35;210.48;;;;;;;;;;5033418;28;20034;-76
2021/03/18 21:34:46;;;;;;;430.58;210.48;;;;;;;;;;5033623;28;20029;-76
2021/03/18 21:37:12;;;;;;;435.05;214.43;;;;;;;;;;5032296;28;20034;-77
2021/03/18 21:39:38;;;;;;;429.00;206.02;;;;;;;;;;5032104;28;20049;-77
2021/03/18 21:42:04;;;;;;;425.15;207.23;;;;;;;;;;5031801;28;20029;-76
2021/03/18 21:44:49;;;;;;;429.70;206.73;;;;;;;;;;5032355;28;20040;-77
2021/03/18 21:47:15;;;;;;;424.15;200.13;;;;;;;;;;5040322;28;20034;-76
2021/03/18 21:49:41;;;;;;;428.05;203.50;;;;;;;;;;5042746;28;20021;-76
2021/03/18 21:52:07;;;;;;;428.70;214.05;;;;;;;;;;5035968;28;20037;-77
2021/03/18 21:54:33;;;;;;;424.30;211.18;;;;;;;;;;5034219;28;20030;-76
2021/03/18 21:56:59;;;;;;;421.67;205.07;;;;;;;;;;5039363;28;20117;-76
2021/03/18 21:59:25;;;;;;;423.23;204.77;;;;;;;;;;5032844;28;20018;-76
2021/03/18 22:01:54;;;;;;;428.92;203.55;;;;;;;;;;5031445;28;20014;-75
2021/03/18 22:04:21;;;;;;;426.05;210.98;;;;;;;;;;5033368;28;20028;-76
2021/03/18 22:06:47;;;;;;;430.20;213.75;;;;;;;;;;5032988;28;20104;-76
2021/03/18 22:09:13;;;;;;;434.77;210.23;;;;;;;;;;5047359;28;20057;-77
2021/03/18 22:11:39;;;;;;;436.35;206.43;;;;;;;;;;5029775;28;20029;-76
2021/03/18 22:14:05;;;;;;;441.83;206.65;;;;;;;;;;5032578;28;20041;-76
2021/03/18 22:16:31;;;;;;;442.27;215.45;;;;;;;;;;5033005;28;20108;-78
2021/03/18 22:18:57;;;;;;;438.40;203.00;;;;;;;;;;5031583;28;20466;-76
2021/03/18 22:21:23;;;;;;;440.52;209.85;;;;;;;;;;5031421;28;20079;-76
2021/03/18 22:23:49;;;;;;;435.27;208.15;;;;;;;;;;5032769;28;20040;-75
2021/03/18 22:26:16;;;;;;;433.02;203.93;;;;;;;;;;5031190;28;20030;-76
2021/03/18 22:28:42;;;;;;;435.58;204.32;;;;;;;;;;5047437;28;20026;-76
2021/03/18 22:31:08;;;;;;;437.33;199.95;;;;;;;;;;5048135;28;20123;-78
2021/03/18 22:36:37;;;;;;;432.25;195.63;;;;;;;;;;5032750;28;20777;-76
2021/03/18 22:39:03;;;;;;;425.20;196.45;;;;;;;;;;5047697;28;20037;-75
2021/03/18 22:41:30;;;;;;;445.58;204.70;;;;;;;;;;5029664;28;20056;-76
2021/03/18 22:43:57;;;;;;;458.30;197.70;;;;;;;;;;5031441;28;20026;-76
2021/03/18 22:46:23;;;;;;;454.00;194.85;;;;;;;;;;5031692;28;20389;-76
2021/03/18 22:48:49;;;;;;;456.63;197.07;;;;;;;;;;5031711;28;20370;-76
2021/03/18 22:51:15;;;;;;;446.17;193.55;;;;;;;;;;5032371;28;20025;-76
2021/03/18 22:53:41;;;;;;;444.10;190.32;;;;;;;;;;5031089;28;20052;-76
2021/03/18 22:56:07;;;;;;;431.10;187.57;;;;;;;;;;5030967;28;20036;-76
2021/03/18 22:58:33;;;;;;;431.20;196.90;;;;;;;;;;5030953;28;21476;-76
2021/03/18 23:00:59;;;;;;;428.40;191.55;;;;;;;;;;5032422;28;20041;-75
2021/03/18 23:03:25;;;;;;;429.27;196.75;;;;;;;;;;5046674;28;20493;-77
2021/03/18 23:05:51;;;;;;;437.05;206.10;;;;;;;;;;5028139;28;20037;-76
2021/03/18 23:08:17;;;;;;;433.35;197.63;;;;;;;;;;5041129;28;20152;-77
2021/03/18 23:10:43;;;;;;;446.95;200.10;;;;;;;;;;5031092;28;20108;-76
2021/03/18 23:13:09;;;;;;;435.88;197.48;;;;;;;;;;5030594;28;20435;-75
2021/03/18 23:15:35;;;;;;;433.23;199.80;;;;;;;;;;5032604;28;20029;-76
2021/03/18 23:18:13;;;;;;;426.65;195.70;;;;;;;;;;5031903;28;20032;-76
2021/03/18 23:20:40;;;;;;;424.73;187.77;;;;;;;;;;5036347;28;20381;-75
2021/03/18 23:23:06;;;;;;;428.42;195.23;;;;;;;;;;5029695;28;20025;-75
2021/03/18 23:25:32;;;;;;;429.67;191.88;;;;;;;;;;5030855;28;20095;-75
2021/03/18 23:27:58;;;;;;;423.33;189.57;;;;;;;;;;5031890;28;20028;-75
2021/03/18 23:30:27;;;;;;;434.13;196.63;;;;;;;;;;5030890;28;20028;-75
2021/03/18 23:32:54;;;;;;;423.45;187.55;;;;;;;;;;5032417;28;20037;-75
2021/03/18 23:35:20;;;;;;;428.83;191.65;;;;;;;;;;5051550;28;20140;-75
2021/03/18 23:37:46;;;;;;;431.60;196.07;;;;;;;;;;5035618;28;20029;-76
2021/03/18 23:40:14;;;;;;;425.83;183.75;;;;;;;;;;5037553;28;20128;-75
2021/03/18 23:42:40;;;;;;;428.55;192.93;;;;;;;;;;5032957;28;20025;-75
2021/03/18 23:45:07;;;;;;;429.15;197.77;;;;;;;;;;5032963;28;20105;-75
2021/03/18 23:47:34;;;;;;;428.83;191.65;;;;;;;;;;5031593;28;20030;-75
2021/03/18 23:50:01;;;;;;;433.38;189.55;;;;;;;;;;5034056;28;20377;-75
2021/03/18 23:52:26;;;;;;;432.00;194.18;;;;;;;;;;5039279;28;20029;-75
2021/03/18 23:54:53;;;;;;;437.80;195.18;;;;;;;;;;5039528;28;20476;-75
2021/03/18 23:57:19;;;;;;;428.23;188.38;;;;;;;;;;5030896;28;20084;-75
2021/03/18 23:59:44;;;;;;;428.92;190.85;;;;;;;;;;5032933;28;20033;-76
